sensor_id;sensor_type;location;lat;lon;timestamp;P1;durP1;ratioP1;P2;durP2;ratioP2
44000;SDS011;29660;42.892;24.710;2023-06-22T00:04:15;17.15;;;13.13;;
44000;SDS011;29660;42.892;24.710;2023-06-22T00:09:37;13.95;;;12.23;;
44000;SDS011;29660;42.892;24.710;2023-06-22T00:14:59;15.70;;;11.95;;
44000;SDS011;29660;42.892;24.710;2023-06-22T00:20:21;10.98;;;9.75;;
44000;SDS011;29660;42.892;24.710;2023-06-22T00:25:44;11.43;;;10.23;;
44000;SDS011;29660;42.892;24.710;2023-06-22T00:31:06;11.35;;;10.25;;
44000;SDS011;29660;42.892;24.710;2023-06-22T00:36:29;11.48;;;10.35;;
44000;SDS011;29660;42.892;24.710;2023-06-22T00:41:51;11.23;;;10.13;;
44000;SDS011;29660;42.892;24.710;2023-06-22T00:47:13;14.90;;;10.90;;
44000;SDS011;29660;42.892;24.710;2023-06-22T00:52:38;13.38;;;10.20;;
44000;SDS011;29660;42.892;24.710;2023-06-22T00:58:05;12.10;;;10.98;;
44000;SDS011;29660;42.892;24.710;2023-06-22T01:03:32;12.63;;;11.18;;
44000;SDS011;29660;42.892;24.710;2023-06-22T01:09:00;13.60;;;10.63;;
44000;SDS011;29660;42.892;24.710;2023-06-22T01:14:35;11.27;;;10.23;;
44000;SDS011;29660;42.892;24.710;2023-06-22T01:20:20;14.73;;;11.38;;
44000;SDS011;29660;42.892;24.710;2023-06-22T01:25:47;11.95;;;10.90;;
44000;SDS011;29660;42.892;24.710;2023-06-22T01:31:23;12.60;;;11.50;;
44000;SDS011;29660;42.892;24.710;2023-06-22T01:36:47;11.98;;;10.80;;
44000;SDS011;29660;42.892;24.710;2023-06-22T01:42:11;12.18;;;10.88;;
44000;SDS011;29660;42.892;24.710;2023-06-22T01:47:34;13.55;;;11.02;;
44000;SDS011;29660;42.892;24.710;2023-06-22T01:52:57;12.68;;;11.50;;
44000;SDS011;29660;42.892;24.710;2023-06-22T01:58:21;14.05;;;12.30;;
44000;SDS011;29660;42.892;24.710;2023-06-22T02:03:48;15.60;;;11.90;;
44000;SDS011;29660;42.892;24.710;2023-06-22T02:09:17;13.38;;;11.68;;
44000;SDS011;29660;42.892;24.710;2023-06-22T02:14:43;18.13;;;12.25;;
44000;SDS011;29660;42.892;24.710;2023-06-22T02:20:06;13.95;;;12.00;;
44000;SDS011;29660;42.892;24.710;2023-06-22T02:25:36;16.08;;;12.60;;
44000;SDS011;29660;42.892;24.710;2023-06-22T02:30:58;14.13;;;12.60;;
44000;SDS011;29660;42.892;24.710;2023-06-22T02:36:20;13.55;;;12.35;;
44000;SDS011;29660;42.892;24.710;2023-06-22T02:41:46;16.00;;;12.40;;
44000;SDS011;29660;42.892;24.710;2023-06-22T02:47:09;15.63;;;12.20;;
44000;SDS011;29660;42.892;24.710;2023-06-22T02:52:31;15.68;;;12.10;;
44000;SDS011;29660;42.892;24.710;2023-06-22T02:57:54;14.02;;;12.73;;
44000;SDS011;29660;42.892;24.710;2023-06-22T03:03:16;13.60;;;12.25;;
44000;SDS011;29660;42.892;24.710;2023-06-22T03:08:38;33.75;;;30.05;;
44000;SDS011;29660;42.892;24.710;2023-06-22T03:14:01;14.30;;;12.95;;
44000;SDS011;29660;42.892;24.710;2023-06-22T03:19:23;12.70;;;11.50;;
44000;SDS011;29660;42.892;24.710;2023-06-22T03:24:45;15.77;;;12.35;;
44000;SDS011;29660;42.892;24.710;2023-06-22T03:30:09;14.02;;;12.70;;
44000;SDS011;29660;42.892;24.710;2023-06-22T03:35:33;13.98;;;12.32;;
44000;SDS011;29660;42.892;24.710;2023-06-22T03:40:55;16.55;;;11.93;;
44000;SDS011;29660;42.892;24.710;2023-06-22T03:46:17;15.07;;;12.27;;
44000;SDS011;29660;42.892;24.710;2023-06-22T03:51:39;15.68;;;11.13;;
44000;SDS011;29660;42.892;24.710;2023-06-22T03:57:01;12.57;;;10.43;;
44000;SDS011;29660;42.892;24.710;2023-06-22T04:02:24;12.88;;;10.65;;
44000;SDS011;29660;42.892;24.710;2023-06-22T04:07:46;15.15;;;10.35;;
44000;SDS011;29660;42.892;24.710;2023-06-22T04:13:09;10.32;;;9.30;;
44000;SDS011;29660;42.892;24.710;2023-06-22T04:18:31;10.70;;;8.88;;
44000;SDS011;29660;42.892;24.710;2023-06-22T04:23:53;14.73;;;9.40;;
44000;SDS011;29660;42.892;24.710;2023-06-22T04:29:15;26.30;;;10.05;;
44000;SDS011;29660;42.892;24.710;2023-06-22T04:34:37;13.15;;;9.35;;
44000;SDS011;29660;42.892;24.710;2023-06-22T04:39:59;14.38;;;9.13;;
44000;SDS011;29660;42.892;24.710;2023-06-22T04:45:22;13.70;;;8.85;;
44000;SDS011;29660;42.892;24.710;2023-06-22T04:50:44;10.18;;;8.18;;
44000;SDS011;29660;42.892;24.710;2023-06-22T04:56:07;8.68;;;7.80;;
44000;SDS011;29660;42.892;24.710;2023-06-22T05:01:30;11.10;;;7.82;;
44000;SDS011;29660;42.892;24.710;2023-06-22T05:06:57;8.75;;;7.85;;
44000;SDS011;29660;42.892;24.710;2023-06-22T05:12:20;15.60;;;7.90;;
44000;SDS011;29660;42.892;24.710;2023-06-22T05:17:42;12.90;;;8.30;;
44000;SDS011;29660;42.892;24.710;2023-06-22T05:23:07;12.52;;;8.07;;
44000;SDS011;29660;42.892;24.710;2023-06-22T05:28:29;11.15;;;7.90;;
44000;SDS011;29660;42.892;24.710;2023-06-22T05:33:51;10.90;;;8.00;;
44000;SDS011;29660;42.892;24.710;2023-06-22T05:39:15;14.45;;;8.38;;
44000;SDS011;29660;42.892;24.710;2023-06-22T05:44:37;8.18;;;7.30;;
44000;SDS011;29660;42.892;24.710;2023-06-22T05:50:02;14.00;;;7.55;;
44000;SDS011;29660;42.892;24.710;2023-06-22T05:55:28;12.20;;;7.13;;
44000;SDS011;29660;42.892;24.710;2023-06-22T06:00:50;8.43;;;7.25;;
44000;SDS011;29660;42.892;24.710;2023-06-22T06:06:12;8.07;;;7.28;;
44000;SDS011;29660;42.892;24.710;2023-06-22T06:11:35;9.27;;;7.25;;
44000;SDS011;29660;42.892;24.710;2023-06-22T06:16:57;9.88;;;7.13;;
44000;SDS011;29660;42.892;24.710;2023-06-22T06:22:20;9.38;;;7.00;;
44000;SDS011;29660;42.892;24.710;2023-06-22T06:27:43;11.07;;;7.55;;
44000;SDS011;29660;42.892;24.710;2023-06-22T06:33:05;9.80;;;7.20;;
44000;SDS011;29660;42.892;24.710;2023-06-22T09:11:57;6.45;;;5.78;;
44000;SDS011;29660;42.892;24.710;2023-06-22T09:17:20;6.95;;;5.78;;
44000;SDS011;29660;42.892;24.710;2023-06-22T09:22:42;6.63;;;5.65;;
44000;SDS011;29660;42.892;24.710;2023-06-22T09:28:04;7.75;;;5.68;;
44000;SDS011;29660;42.892;24.710;2023-06-22T09:33:26;8.55;;;5.35;;
44000;SDS011;29660;42.892;24.710;2023-06-22T09:38:48;6.88;;;5.60;;
44000;SDS011;29660;42.892;24.710;2023-06-22T09:44:16;6.18;;;5.57;;
44000;SDS011;29660;42.892;24.710;2023-06-22T09:49:39;9.10;;;5.68;;
44000;SDS011;29660;42.892;24.710;2023-06-22T09:55:08;7.60;;;5.75;;
44000;SDS011;29660;42.892;24.710;2023-06-22T10:00:30;7.78;;;6.05;;
44000;SDS011;29660;42.892;24.710;2023-06-22T10:05:53;8.23;;;5.90;;
44000;SDS011;29660;42.892;24.710;2023-06-22T10:11:15;6.30;;;5.43;;
44000;SDS011;29660;42.892;24.710;2023-06-22T10:16:37;7.50;;;6.20;;
44000;SDS011;29660;42.892;24.710;2023-06-22T10:21:59;7.68;;;5.32;;
44000;SDS011;29660;42.892;24.710;2023-06-22T10:27:21;6.38;;;5.47;;
44000;SDS011;29660;42.892;24.710;2023-06-22T10:32:43;6.97;;;5.40;;
44000;SDS011;29660;42.892;24.710;2023-06-22T10:38:06;9.05;;;4.90;;
44000;SDS011;29660;42.892;24.710;2023-06-22T10:43:28;8.00;;;5.40;;
44000;SDS011;29660;42.892;24.710;2023-06-22T10:48:50;8.15;;;5.40;;
44000;SDS011;29660;42.892;24.710;2023-06-22T10:54:12;6.28;;;5.00;;
44000;SDS011;29660;42.892;24.710;2023-06-22T10:59:35;5.00;;;4.60;;
44000;SDS011;29660;42.892;24.710;2023-06-22T11:04:57;6.63;;;5.90;;
44000;SDS011;29660;42.892;24.710;2023-06-22T11:10:22;5.57;;;5.00;;
44000;SDS011;29660;42.892;24.710;2023-06-22T11:15:44;6.00;;;5.40;;
44000;SDS011;29660;42.892;24.710;2023-06-22T11:21:06;5.78;;;5.10;;
44000;SDS011;29660;42.892;24.710;2023-06-22T11:26:28;6.28;;;5.15;;
44000;SDS011;29660;42.892;24.710;2023-06-22T11:31:51;7.18;;;5.07;;
44000;SDS011;29660;42.892;24.710;2023-06-22T11:37:13;5.53;;;5.03;;
44000;SDS011;29660;42.892;24.710;2023-06-22T11:42:37;9.88;;;7.72;;
44000;SDS011;29660;42.892;24.710;2023-06-22T11:47:59;6.03;;;5.00;;
44000;SDS011;29660;42.892;24.710;2023-06-22T11:53:22;7.90;;;5.28;;
44000;SDS011;29660;42.892;24.710;2023-06-22T11:58:45;7.45;;;5.00;;
44000;SDS011;29660;42.892;24.710;2023-06-22T12:04:08;5.90;;;5.25;;
44000;SDS011;29660;42.892;24.710;2023-06-22T12:09:32;6.40;;;5.20;;
44000;SDS011;29660;42.892;24.710;2023-06-22T12:14:55;7.90;;;5.10;;
44000;SDS011;29660;42.892;24.710;2023-06-22T12:20:17;6.10;;;5.15;;
44000;SDS011;29660;42.892;24.710;2023-06-22T12:25:39;6.47;;;5.22;;
44000;SDS011;29660;42.892;24.710;2023-06-22T12:31:01;5.60;;;4.65;;
44000;SDS011;29660;42.892;24.710;2023-06-22T12:36:23;5.57;;;4.97;;
44000;SDS011;29660;42.892;24.710;2023-06-22T12:41:46;9.15;;;6.00;;
44000;SDS011;29660;42.892;24.710;2023-06-22T12:47:09;7.78;;;5.28;;
44000;SDS011;29660;42.892;24.710;2023-06-22T12:52:31;8.18;;;5.88;;
44000;SDS011;29660;42.892;24.710;2023-06-22T12:57:54;7.15;;;6.25;;
44000;SDS011;29660;42.892;24.710;2023-06-22T13:03:16;6.63;;;5.45;;
44000;SDS011;29660;42.892;24.710;2023-06-22T13:08:38;6.03;;;5.40;;
44000;SDS011;29660;42.892;24.710;2023-06-22T13:14:03;9.20;;;5.50;;
44000;SDS011;29660;42.892;24.710;2023-06-22T13:19:27;6.43;;;5.78;;
44000;SDS011;29660;42.892;24.710;2023-06-22T13:24:53;6.00;;;5.50;;
44000;SDS011;29660;42.892;24.710;2023-06-22T13:30:17;8.15;;;5.70;;
44000;SDS011;29660;42.892;24.710;2023-06-22T13:35:39;7.35;;;5.43;;
44000;SDS011;29660;42.892;24.710;2023-06-22T13:41:07;6.57;;;5.80;;
44000;SDS011;29660;42.892;24.710;2023-06-22T13:46:29;8.90;;;6.25;;
44000;SDS011;29660;42.892;24.710;2023-06-22T13:51:51;7.40;;;5.88;;
44000;SDS011;29660;42.892;24.710;2023-06-22T13:57:13;6.95;;;6.28;;
44000;SDS011;29660;42.892;24.710;2023-06-22T14:02:35;6.75;;;5.97;;
44000;SDS011;29660;42.892;24.710;2023-06-22T14:07:58;13.20;;;6.68;;
44000;SDS011;29660;42.892;24.710;2023-06-22T14:13:20;6.63;;;6.00;;
44000;SDS011;29660;42.892;24.710;2023-06-22T14:18:42;8.48;;;6.82;;
44000;SDS011;29660;42.892;24.710;2023-06-22T14:24:04;8.38;;;6.68;;
44000;SDS011;29660;42.892;24.710;2023-06-22T14:29:26;10.63;;;7.18;;
44000;SDS011;29660;42.892;24.710;2023-06-22T14:34:49;7.55;;;6.95;;
44000;SDS011;29660;42.892;24.710;2023-06-22T14:40:11;9.00;;;7.20;;
44000;SDS011;29660;42.892;24.710;2023-06-22T14:45:34;9.15;;;7.32;;
44000;SDS011;29660;42.892;24.710;2023-06-22T14:50:56;11.07;;;7.40;;
44000;SDS011;29660;42.892;24.710;2023-06-22T14:56:18;10.13;;;7.10;;
44000;SDS011;29660;42.892;24.710;2023-06-22T15:01:41;9.75;;;7.63;;
44000;SDS011;29660;42.892;24.710;2023-06-22T15:07:04;8.05;;;7.35;;
44000;SDS011;29660;42.892;24.710;2023-06-22T15:12:26;8.55;;;7.63;;
44000;SDS011;29660;42.892;24.710;2023-06-22T15:17:48;9.48;;;7.82;;
44000;SDS011;29660;42.892;24.710;2023-06-22T15:23:11;9.23;;;7.75;;
44000;SDS011;29660;42.892;24.710;2023-06-22T15:28:34;10.25;;;7.47;;
44000;SDS011;29660;42.892;24.710;2023-06-22T15:33:59;11.23;;;8.07;;
44000;SDS011;29660;42.892;24.710;2023-06-22T15:39:21;9.50;;;8.00;;
44000;SDS011;29660;42.892;24.710;2023-06-22T15:44:44;8.73;;;7.95;;
44000;SDS011;29660;42.892;24.710;2023-06-22T15:50:07;10.27;;;7.80;;
44000;SDS011;29660;42.892;24.710;2023-06-22T15:55:29;9.05;;;8.15;;
44000;SDS011;29660;42.892;24.710;2023-06-22T16:00:53;9.73;;;8.43;;
44000;SDS011;29660;42.892;24.710;2023-06-22T16:06:16;12.98;;;8.15;;
44000;SDS011;29660;42.892;24.710;2023-06-22T16:11:38;8.90;;;8.00;;
44000;SDS011;29660;42.892;24.710;2023-06-22T16:17:00;11.38;;;8.48;;
44000;SDS011;29660;42.892;24.710;2023-06-22T16:22:25;9.80;;;7.95;;
44000;SDS011;29660;42.892;24.710;2023-06-22T16:27:48;9.30;;;8.23;;
44000;SDS011;29660;42.892;24.710;2023-06-22T16:33:10;10.65;;;8.85;;
44000;SDS011;29660;42.892;24.710;2023-06-22T16:38:32;8.93;;;8.02;;
44000;SDS011;29660;42.892;24.710;2023-06-22T16:43:55;10.75;;;8.90;;
44000;SDS011;29660;42.892;24.710;2023-06-22T16:49:17;10.10;;;8.55;;
44000;SDS011;29660;42.892;24.710;2023-06-22T16:54:39;10.27;;;9.02;;
44000;SDS011;29660;42.892;24.710;2023-06-22T17:00:17;10.35;;;9.40;;
44000;SDS011;29660;42.892;24.710;2023-06-22T17:05:40;12.15;;;9.75;;
44000;SDS011;29660;42.892;24.710;2023-06-22T17:11:03;12.60;;;9.95;;
44000;SDS011;29660;42.892;24.710;2023-06-22T17:16:25;11.10;;;9.30;;
44000;SDS011;29660;42.892;24.710;2023-06-22T17:21:49;13.25;;;11.45;;
44000;SDS011;29660;42.892;24.710;2023-06-22T17:27:11;15.27;;;13.05;;
44000;SDS011;29660;42.892;24.710;2023-06-22T17:32:34;14.60;;;12.13;;
44000;SDS011;29660;42.892;24.710;2023-06-22T17:37:57;13.52;;;10.82;;
44000;SDS011;29660;42.892;24.710;2023-06-22T17:43:22;18.88;;;14.75;;
44000;SDS011;29660;42.892;24.710;2023-06-22T17:48:44;20.40;;;14.30;;
44000;SDS011;29660;42.892;24.710;2023-06-22T17:54:09;13.65;;;12.32;;
44000;SDS011;29660;42.892;24.710;2023-06-22T17:59:32;12.57;;;10.98;;
44000;SDS011;29660;42.892;24.710;2023-06-22T18:04:57;11.98;;;10.77;;
44000;SDS011;29660;42.892;24.710;2023-06-22T18:10:19;12.68;;;11.38;;
44000;SDS011;29660;42.892;24.710;2023-06-22T18:15:42;13.20;;;11.80;;
44000;SDS011;29660;42.892;24.710;2023-06-22T18:21:04;14.55;;;13.13;;
44000;SDS011;29660;42.892;24.710;2023-06-22T18:26:28;13.77;;;12.45;;
44000;SDS011;29660;42.892;24.710;2023-06-22T18:31:50;15.63;;;11.88;;
44000;SDS011;29660;42.892;24.710;2023-06-22T18:37:13;12.77;;;11.57;;
44000;SDS011;29660;42.892;24.710;2023-06-22T18:42:43;13.98;;;12.63;;
44000;SDS011;29660;42.892;24.710;2023-06-22T18:48:07;15.40;;;13.02;;
44000;SDS011;29660;42.892;24.710;2023-06-22T18:53:30;13.98;;;12.48;;
44000;SDS011;29660;42.892;24.710;2023-06-22T18:58:58;13.50;;;12.10;;
44000;SDS011;29660;42.892;24.710;2023-06-22T19:04:20;13.48;;;12.02;;
44000;SDS011;29660;42.892;24.710;2023-06-22T19:09:47;16.33;;;13.02;;
44000;SDS011;29660;42.892;24.710;2023-06-22T19:16:01;14.63;;;13.10;;
44000;SDS011;29660;42.892;24.710;2023-06-22T19:21:24;15.35;;;12.30;;
44000;SDS011;29660;42.892;24.710;2023-06-22T19:26:50;14.13;;;12.70;;
44000;SDS011;29660;42.892;24.710;2023-06-22T19:32:12;13.77;;;12.50;;
44000;SDS011;29660;42.892;24.710;2023-06-22T19:37:35;14.07;;;12.45;;
44000;SDS011;29660;42.892;24.710;2023-06-22T19:42:57;14.73;;;13.02;;
44000;SDS011;29660;42.892;24.710;2023-06-22T19:48:19;13.10;;;11.80;;
44000;SDS011;29660;42.892;24.710;2023-06-22T19:53:46;14.00;;;12.40;;
44000;SDS011;29660;42.892;24.710;2023-06-22T19:59:13;13.40;;;12.10;;
44000;SDS011;29660;42.892;24.710;2023-06-22T20:15:29;13.32;;;12.15;;
44000;SDS011;29660;42.892;24.710;2023-06-22T20:20:52;13.10;;;11.95;;
44000;SDS011;29660;42.892;24.710;2023-06-22T20:26:14;13.95;;;12.52;;
44000;SDS011;29660;42.892;24.710;2023-06-22T20:31:38;13.57;;;11.80;;
44000;SDS011;29660;42.892;24.710;2023-06-22T20:37:00;13.65;;;12.35;;
44000;SDS011;29660;42.892;24.710;2023-06-22T20:42:23;13.90;;;12.68;;
44000;SDS011;29660;42.892;24.710;2023-06-22T20:47:45;14.70;;;13.20;;
44000;SDS011;29660;42.892;24.710;2023-06-22T20:53:08;14.40;;;12.85;;
44000;SDS011;29660;42.892;24.710;2023-06-22T20:58:30;14.32;;;12.55;;
44000;SDS011;29660;42.892;24.710;2023-06-22T21:03:52;13.95;;;12.80;;
44000;SDS011;29660;42.892;24.710;2023-06-22T21:09:14;15.05;;;13.40;;
44000;SDS011;29660;42.892;24.710;2023-06-22T21:14:36;15.13;;;13.73;;
44000;SDS011;29660;42.892;24.710;2023-06-22T21:19:59;14.38;;;12.98;;
44000;SDS011;29660;42.892;24.710;2023-06-22T21:25:21;14.98;;;13.63;;
44000;SDS011;29660;42.892;24.710;2023-06-22T21:30:43;14.75;;;13.45;;
44000;SDS011;29660;42.892;24.710;2023-06-22T21:36:06;17.05;;;14.25;;
44000;SDS011;29660;42.892;24.710;2023-06-22T21:41:28;18.95;;;15.07;;
44000;SDS011;29660;42.892;24.710;2023-06-22T21:46:51;15.45;;;14.00;;
44000;SDS011;29660;42.892;24.710;2023-06-22T21:52:13;16.13;;;14.80;;
44000;SDS011;29660;42.892;24.710;2023-06-22T21:57:35;15.75;;;14.35;;
44000;SDS011;29660;42.892;24.710;2023-06-22T22:02:57;16.42;;;14.73;;
44000;SDS011;29660;42.892;24.710;2023-06-22T22:08:19;17.65;;;15.55;;
44000;SDS011;29660;42.892;24.710;2023-06-22T22:13:41;16.27;;;14.60;;
44000;SDS011;29660;42.892;24.710;2023-06-22T22:19:04;15.63;;;14.20;;
44000;SDS011;29660;42.892;24.710;2023-06-22T22:24:26;16.20;;;14.80;;
44000;SDS011;29660;42.892;24.710;2023-06-22T22:29:48;16.70;;;15.05;;
44000;SDS011;29660;42.892;24.710;2023-06-22T22:35:11;17.90;;;15.68;;
44000;SDS011;29660;42.892;24.710;2023-06-22T22:40:35;17.48;;;15.82;;
44000;SDS011;29660;42.892;24.710;2023-06-22T22:45:57;17.10;;;15.40;;
44000;SDS011;29660;42.892;24.710;2023-06-22T22:51:19;18.15;;;16.20;;
44000;SDS011;29660;42.892;24.710;2023-06-22T22:56:41;17.92;;;16.13;;
44000;SDS011;29660;42.892;24.710;2023-06-22T23:02:04;18.25;;;16.45;;
44000;SDS011;29660;42.892;24.710;2023-06-22T23:07:26;17.08;;;15.48;;
44000;SDS011;29660;42.892;24.710;2023-06-22T23:12:50;20.63;;;14.23;;
44000;SDS011;29660;42.892;24.710;2023-06-22T23:18:12;16.80;;;15.27;;
44000;SDS011;29660;42.892;24.710;2023-06-22T23:23:34;17.65;;;16.05;;
44000;SDS011;29660;42.892;24.710;2023-06-22T23:28:56;17.35;;;15.52;;
44000;SDS011;29660;42.892;24.710;2023-06-22T23:34:19;17.33;;;15.60;;
44000;SDS011;29660;42.892;24.710;2023-06-22T23:39:41;17.88;;;16.27;;
44000;SDS011;29660;42.892;24.710;2023-06-22T23:45:05;18.42;;;16.75;;
44000;SDS011;29660;42.892;24.710;2023-06-22T23:50:28;17.48;;;15.88;;
44000;SDS011;29660;42.892;24.710;2023-06-22T23:55:50;17.38;;;15.75;;
